sensor_id;sensor_type;location;lat;lon;timestamp;P1;durP1;ratioP1;P2;durP2;ratioP2
9310;SDS011;4694;52.464;13.480;2022-09-28T00:00:18;5.97;;;3.58;;
9310;SDS011;4694;52.464;13.480;2022-09-28T00:02:45;3.83;;;3.03;;
9310;SDS011;4694;52.464;13.480;2022-09-28T00:05:13;4.68;;;3.33;;
9310;SDS011;4694;52.464;13.480;2022-09-28T00:07:41;3.50;;;2.47;;
9310;SDS011;4694;52.464;13.480;2022-09-28T00:10:08;6.18;;;2.75;;
9310;SDS011;4694;52.464;13.480;2022-09-28T00:12:36;3.60;;;2.72;;
9310;SDS011;4694;52.464;13.480;2022-09-28T00:15:04;5.57;;;2.97;;
9310;SDS011;4694;52.464;13.480;2022-09-28T00:17:31;3.65;;;2.33;;
9310;SDS011;4694;52.464;13.480;2022-09-28T00:20:00;3.33;;;2.60;;
9310;SDS011;4694;52.464;13.480;2022-09-28T00:22:30;5.47;;;2.85;;
9310;SDS011;4694;52.464;13.480;2022-09-28T00:24:57;3.10;;;2.55;;
9310;SDS011;4694;52.464;13.480;2022-09-28T00:27:24;5.25;;;2.75;;
9310;SDS011;4694;52.464;13.480;2022-09-28T00:29:51;5.30;;;1.73;;
9310;SDS011;4694;52.464;13.480;2022-09-28T00:32:19;3.92;;;3.08;;
9310;SDS011;4694;52.464;13.480;2022-09-28T00:34:48;4.07;;;2.70;;
9310;SDS011;4694;52.464;13.480;2022-09-28T00:37:16;7.40;;;2.95;;
9310;SDS011;4694;52.464;13.480;2022-09-28T00:39:45;5.43;;;2.35;;
9310;SDS011;4694;52.464;13.480;2022-09-28T00:42:14;4.35;;;2.80;;
9310;SDS011;4694;52.464;13.480;2022-09-28T00:44:42;4.18;;;2.63;;
9310;SDS011;4694;52.464;13.480;2022-09-28T00:47:17;3.50;;;2.35;;
9310;SDS011;4694;52.464;13.480;2022-09-28T00:49:46;4.43;;;2.45;;
9310;SDS011;4694;52.464;13.480;2022-09-28T00:52:17;5.75;;;2.83;;
9310;SDS011;4694;52.464;13.480;2022-09-28T00:54:47;3.72;;;3.00;;
9310;SDS011;4694;52.464;13.480;2022-09-28T00:57:14;5.95;;;2.90;;
9310;SDS011;4694;52.464;13.480;2022-09-28T00:59:42;4.32;;;2.05;;
9310;SDS011;4694;52.464;13.480;2022-09-28T01:02:08;3.72;;;2.40;;
9310;SDS011;4694;52.464;13.480;2022-09-28T01:04:36;3.55;;;2.75;;
9310;SDS011;4694;52.464;13.480;2022-09-28T01:07:04;6.78;;;2.90;;
9310;SDS011;4694;52.464;13.480;2022-09-28T01:09:31;3.95;;;2.95;;
9310;SDS011;4694;52.464;13.480;2022-09-28T01:12:00;4.32;;;2.63;;
9310;SDS011;4694;52.464;13.480;2022-09-28T01:14:27;7.53;;;2.67;;
9310;SDS011;4694;52.464;13.480;2022-09-28T01:16:56;3.38;;;2.08;;
9310;SDS011;4694;52.464;13.480;2022-09-28T01:22:13;3.42;;;2.30;;
9310;SDS011;4694;52.464;13.480;2022-09-28T01:24:44;4.20;;;2.25;;
9310;SDS011;4694;52.464;13.480;2022-09-28T01:27:13;4.93;;;2.75;;
9310;SDS011;4694;52.464;13.480;2022-09-28T01:29:44;7.50;;;2.50;;
9310;SDS011;4694;52.464;13.480;2022-09-28T01:32:14;4.72;;;2.58;;
9310;SDS011;4694;52.464;13.480;2022-09-28T01:34:44;4.28;;;2.17;;
9310;SDS011;4694;52.464;13.480;2022-09-28T01:37:13;3.90;;;2.22;;
9310;SDS011;4694;52.464;13.480;2022-09-28T01:39:42;4.35;;;2.47;;
9310;SDS011;4694;52.464;13.480;2022-09-28T01:42:13;5.70;;;3.03;;
9310;SDS011;4694;52.464;13.480;2022-09-28T01:44:44;5.07;;;2.38;;
9310;SDS011;4694;52.464;13.480;2022-09-28T01:47:12;3.92;;;2.50;;
9310;SDS011;4694;52.464;13.480;2022-09-28T01:49:41;5.13;;;3.05;;
9310;SDS011;4694;52.464;13.480;2022-09-28T01:52:12;6.80;;;3.93;;
9310;SDS011;4694;52.464;13.480;2022-09-28T01:54:41;6.40;;;2.63;;
9310;SDS011;4694;52.464;13.480;2022-09-28T01:57:11;5.05;;;2.65;;
9310;SDS011;4694;52.464;13.480;2022-09-28T01:59:40;4.53;;;3.00;;
9310;SDS011;4694;52.464;13.480;2022-09-28T02:02:11;3.85;;;2.60;;
9310;SDS011;4694;52.464;13.480;2022-09-28T02:07:07;4.53;;;2.80;;
9310;SDS011;4694;52.464;13.480;2022-09-28T02:09:36;4.65;;;3.15;;
9310;SDS011;4694;52.464;13.480;2022-09-28T02:12:06;4.43;;;2.67;;
9310;SDS011;4694;52.464;13.480;2022-09-28T02:14:34;3.38;;;2.47;;
9310;SDS011;4694;52.464;13.480;2022-09-28T02:17:03;6.95;;;3.22;;
9310;SDS011;4694;52.464;13.480;2022-09-28T02:19:31;3.47;;;2.88;;
9310;SDS011;4694;52.464;13.480;2022-09-28T02:22:00;4.43;;;3.40;;
9310;SDS011;4694;52.464;13.480;2022-09-28T02:24:30;5.57;;;3.13;;
9310;SDS011;4694;52.464;13.480;2022-09-28T02:27:02;5.32;;;2.72;;
9310;SDS011;4694;52.464;13.480;2022-09-28T02:29:31;4.40;;;2.92;;
9310;SDS011;4694;52.464;13.480;2022-09-28T02:31:58;7.43;;;3.05;;
9310;SDS011;4694;52.464;13.480;2022-09-28T02:34:25;8.77;;;3.97;;
9310;SDS011;4694;52.464;13.480;2022-09-28T02:36:54;5.97;;;3.30;;
9310;SDS011;4694;52.464;13.480;2022-09-28T02:39:21;7.18;;;3.53;;
9310;SDS011;4694;52.464;13.480;2022-09-28T02:41:51;8.07;;;3.28;;
9310;SDS011;4694;52.464;13.480;2022-09-28T02:44:27;8.95;;;4.72;;
9310;SDS011;4694;52.464;13.480;2022-09-28T02:46:56;12.85;;;4.78;;
9310;SDS011;4694;52.464;13.480;2022-09-28T02:49:26;7.40;;;3.90;;
9310;SDS011;4694;52.464;13.480;2022-09-28T02:52:07;8.15;;;5.15;;
9310;SDS011;4694;52.464;13.480;2022-09-28T02:54:37;5.25;;;3.70;;
9310;SDS011;4694;52.464;13.480;2022-09-28T02:57:11;7.45;;;3.88;;
9310;SDS011;4694;52.464;13.480;2022-09-28T02:59:45;7.03;;;4.15;;
9310;SDS011;4694;52.464;13.480;2022-09-28T03:02:17;7.82;;;4.38;;
9310;SDS011;4694;52.464;13.480;2022-09-28T03:04:48;6.70;;;3.80;;
9310;SDS011;4694;52.464;13.480;2022-09-28T03:07:20;6.93;;;4.90;;
9310;SDS011;4694;52.464;13.480;2022-09-28T03:09:48;6.20;;;4.20;;
9310;SDS011;4694;52.464;13.480;2022-09-28T03:14:47;6.43;;;3.72;;
9310;SDS011;4694;52.464;13.480;2022-09-28T03:17:14;7.97;;;4.65;;
9310;SDS011;4694;52.464;13.480;2022-09-28T03:19:41;8.40;;;4.22;;
9310;SDS011;4694;52.464;13.480;2022-09-28T03:22:08;11.90;;;4.63;;
9310;SDS011;4694;52.464;13.480;2022-09-28T03:24:36;9.00;;;5.95;;
9310;SDS011;4694;52.464;13.480;2022-09-28T03:27:03;9.20;;;5.25;;
9310;SDS011;4694;52.464;13.480;2022-09-28T03:29:30;7.93;;;4.50;;
9310;SDS011;4694;52.464;13.480;2022-09-28T03:31:58;6.65;;;5.03;;
9310;SDS011;4694;52.464;13.480;2022-09-28T03:34:25;8.30;;;4.93;;
9310;SDS011;4694;52.464;13.480;2022-09-28T03:36:52;11.63;;;5.75;;
9310;SDS011;4694;52.464;13.480;2022-09-28T03:39:19;9.32;;;5.10;;
9310;SDS011;4694;52.464;13.480;2022-09-28T03:41:47;8.77;;;5.10;;
9310;SDS011;4694;52.464;13.480;2022-09-28T03:44:14;7.38;;;4.10;;
9310;SDS011;4694;52.464;13.480;2022-09-28T03:46:41;13.07;;;5.05;;
9310;SDS011;4694;52.464;13.480;2022-09-28T03:49:08;9.18;;;5.65;;
9310;SDS011;4694;52.464;13.480;2022-09-28T03:51:35;9.23;;;5.72;;
9310;SDS011;4694;52.464;13.480;2022-09-28T03:54:02;7.63;;;4.85;;
9310;SDS011;4694;52.464;13.480;2022-09-28T03:56:29;10.20;;;5.53;;
9310;SDS011;4694;52.464;13.480;2022-09-28T03:58:58;8.95;;;4.47;;
9310;SDS011;4694;52.464;13.480;2022-09-28T04:01:25;11.38;;;6.90;;
9310;SDS011;4694;52.464;13.480;2022-09-28T04:03:52;10.70;;;5.38;;
9310;SDS011;4694;52.464;13.480;2022-09-28T04:06:20;7.60;;;5.38;;
9310;SDS011;4694;52.464;13.480;2022-09-28T04:08:47;13.20;;;5.82;;
9310;SDS011;4694;52.464;13.480;2022-09-28T04:11:14;10.40;;;5.65;;
9310;SDS011;4694;52.464;13.480;2022-09-28T04:13:41;9.20;;;5.28;;
9310;SDS011;4694;52.464;13.480;2022-09-28T04:16:09;12.75;;;6.40;;
9310;SDS011;4694;52.464;13.480;2022-09-28T04:18:36;10.70;;;5.65;;
9310;SDS011;4694;52.464;13.480;2022-09-28T04:21:04;11.30;;;5.82;;
9310;SDS011;4694;52.464;13.480;2022-09-28T04:23:32;13.25;;;6.18;;
9310;SDS011;4694;52.464;13.480;2022-09-28T04:25:59;9.82;;;6.18;;
9310;SDS011;4694;52.464;13.480;2022-09-28T04:28:26;10.30;;;5.95;;
9310;SDS011;4694;52.464;13.480;2022-09-28T04:31:13;14.27;;;6.90;;
9310;SDS011;4694;52.464;13.480;2022-09-28T04:33:42;12.43;;;6.60;;
9310;SDS011;4694;52.464;13.480;2022-09-28T04:36:09;10.98;;;6.35;;
9310;SDS011;4694;52.464;13.480;2022-09-28T04:38:36;11.45;;;5.93;;
9310;SDS011;4694;52.464;13.480;2022-09-28T04:41:03;17.15;;;6.10;;
9310;SDS011;4694;52.464;13.480;2022-09-28T04:43:31;13.48;;;5.85;;
9310;SDS011;4694;52.464;13.480;2022-09-28T04:45:58;9.90;;;5.18;;
9310;SDS011;4694;52.464;13.480;2022-09-28T04:48:26;10.95;;;6.43;;
9310;SDS011;4694;52.464;13.480;2022-09-28T04:50:54;14.15;;;6.18;;
9310;SDS011;4694;52.464;13.480;2022-09-28T04:53:21;10.95;;;5.43;;
9310;SDS011;4694;52.464;13.480;2022-09-28T04:55:54;13.60;;;7.47;;
9310;SDS011;4694;52.464;13.480;2022-09-28T04:58:22;12.25;;;5.50;;
9310;SDS011;4694;52.464;13.480;2022-09-28T05:00:49;12.07;;;5.47;;
9310;SDS011;4694;52.464;13.480;2022-09-28T05:03:16;10.15;;;5.47;;
9310;SDS011;4694;52.464;13.480;2022-09-28T05:05:45;13.35;;;6.40;;
9310;SDS011;4694;52.464;13.480;2022-09-28T05:08:12;14.35;;;6.75;;
9310;SDS011;4694;52.464;13.480;2022-09-28T05:10:39;11.93;;;5.80;;
9310;SDS011;4694;52.464;13.480;2022-09-28T05:13:06;10.35;;;6.82;;
9310;SDS011;4694;52.464;13.480;2022-09-28T05:15:34;10.65;;;6.13;;
9310;SDS011;4694;52.464;13.480;2022-09-28T05:18:01;11.32;;;5.93;;
9310;SDS011;4694;52.464;13.480;2022-09-28T05:20:28;7.57;;;5.45;;
9310;SDS011;4694;52.464;13.480;2022-09-28T05:22:56;10.15;;;5.72;;
9310;SDS011;4694;52.464;13.480;2022-09-28T05:25:23;11.68;;;5.93;;
9310;SDS011;4694;52.464;13.480;2022-09-28T05:27:53;8.98;;;5.38;;
9310;SDS011;4694;52.464;13.480;2022-09-28T05:30:20;10.48;;;5.25;;
9310;SDS011;4694;52.464;13.480;2022-09-28T05:32:47;11.27;;;5.53;;
9310;SDS011;4694;52.464;13.480;2022-09-28T05:35:15;8.18;;;4.38;;
9310;SDS011;4694;52.464;13.480;2022-09-28T05:37:43;9.05;;;4.70;;
9310;SDS011;4694;52.464;13.480;2022-09-28T05:40:11;12.38;;;6.40;;
9310;SDS011;4694;52.464;13.480;2022-09-28T05:42:38;9.48;;;5.55;;
9310;SDS011;4694;52.464;13.480;2022-09-28T05:45:06;7.47;;;4.75;;
9310;SDS011;4694;52.464;13.480;2022-09-28T05:47:35;8.75;;;4.90;;
9310;SDS011;4694;52.464;13.480;2022-09-28T05:50:03;6.88;;;4.35;;
9310;SDS011;4694;52.464;13.480;2022-09-28T05:52:30;8.60;;;4.80;;
9310;SDS011;4694;52.464;13.480;2022-09-28T05:54:57;9.23;;;5.40;;
9310;SDS011;4694;52.464;13.480;2022-09-28T05:57:26;10.70;;;5.15;;
9310;SDS011;4694;52.464;13.480;2022-09-28T05:59:53;7.72;;;4.75;;
9310;SDS011;4694;52.464;13.480;2022-09-28T06:02:20;8.07;;;4.63;;
9310;SDS011;4694;52.464;13.480;2022-09-28T06:04:49;9.68;;;4.78;;
9310;SDS011;4694;52.464;13.480;2022-09-28T06:07:17;8.77;;;5.03;;
9310;SDS011;4694;52.464;13.480;2022-09-28T06:09:46;9.95;;;5.50;;
9310;SDS011;4694;52.464;13.480;2022-09-28T06:12:13;7.82;;;4.72;;
9310;SDS011;4694;52.464;13.480;2022-09-28T06:14:41;10.15;;;5.15;;
9310;SDS011;4694;52.464;13.480;2022-09-28T06:17:09;11.55;;;5.60;;
9310;SDS011;4694;52.464;13.480;2022-09-28T06:19:36;7.18;;;4.63;;
9310;SDS011;4694;52.464;13.480;2022-09-28T06:22:03;7.07;;;4.38;;
9310;SDS011;4694;52.464;13.480;2022-09-28T06:24:30;10.60;;;4.63;;
9310;SDS011;4694;52.464;13.480;2022-09-28T06:26:57;5.93;;;4.07;;
9310;SDS011;4694;52.464;13.480;2022-09-28T06:29:25;8.27;;;4.47;;
9310;SDS011;4694;52.464;13.480;2022-09-28T06:31:54;7.65;;;4.28;;
9310;SDS011;4694;52.464;13.480;2022-09-28T06:34:21;5.60;;;3.50;;
9310;SDS011;4694;52.464;13.480;2022-09-28T06:36:48;6.95;;;4.72;;
9310;SDS011;4694;52.464;13.480;2022-09-28T06:39:15;8.10;;;4.13;;
9310;SDS011;4694;52.464;13.480;2022-09-28T06:41:42;7.38;;;4.38;;
9310;SDS011;4694;52.464;13.480;2022-09-28T06:44:09;6.28;;;4.18;;
9310;SDS011;4694;52.464;13.480;2022-09-28T06:46:36;6.35;;;4.05;;
9310;SDS011;4694;52.464;13.480;2022-09-28T06:49:05;7.10;;;5.43;;
9310;SDS011;4694;52.464;13.480;2022-09-28T06:51:33;6.95;;;4.20;;
9310;SDS011;4694;52.464;13.480;2022-09-28T06:54:00;6.40;;;3.53;;
9310;SDS011;4694;52.464;13.480;2022-09-28T06:56:28;5.78;;;3.50;;
9310;SDS011;4694;52.464;13.480;2022-09-28T06:58:55;9.20;;;4.15;;
9310;SDS011;4694;52.464;13.480;2022-09-28T07:01:22;5.97;;;3.97;;
9310;SDS011;4694;52.464;13.480;2022-09-28T07:03:49;4.50;;;3.50;;
9310;SDS011;4694;52.464;13.480;2022-09-28T07:06:18;8.77;;;4.03;;
9310;SDS011;4694;52.464;13.480;2022-09-28T07:08:48;4.78;;;3.63;;
9310;SDS011;4694;52.464;13.480;2022-09-28T07:11:15;7.30;;;3.80;;
9310;SDS011;4694;52.464;13.480;2022-09-28T07:13:44;6.78;;;3.90;;
9310;SDS011;4694;52.464;13.480;2022-09-28T07:16:11;5.70;;;3.95;;
9310;SDS011;4694;52.464;13.480;2022-09-28T07:18:38;6.75;;;4.60;;
9310;SDS011;4694;52.464;13.480;2022-09-28T07:21:06;6.18;;;3.38;;
9310;SDS011;4694;52.464;13.480;2022-09-28T07:23:34;5.25;;;4.38;;
9310;SDS011;4694;52.464;13.480;2022-09-28T07:26:02;4.15;;;3.75;;
9310;SDS011;4694;52.464;13.480;2022-09-28T07:28:29;6.93;;;4.72;;
9310;SDS011;4694;52.464;13.480;2022-09-28T07:30:58;4.68;;;3.92;;
9310;SDS011;4694;52.464;13.480;2022-09-28T07:33:27;8.00;;;5.15;;
9310;SDS011;4694;52.464;13.480;2022-09-28T07:35:56;6.68;;;4.97;;
9310;SDS011;4694;52.464;13.480;2022-09-28T07:38:24;6.78;;;4.80;;
9310;SDS011;4694;52.464;13.480;2022-09-28T07:40:52;6.70;;;4.53;;
9310;SDS011;4694;52.464;13.480;2022-09-28T07:43:38;5.82;;;4.45;;
9310;SDS011;4694;52.464;13.480;2022-09-28T07:46:05;7.80;;;4.43;;
9310;SDS011;4694;52.464;13.480;2022-09-28T07:48:35;7.50;;;4.78;;
9310;SDS011;4694;52.464;13.480;2022-09-28T07:51:02;7.53;;;4.80;;
9310;SDS011;4694;52.464;13.480;2022-09-28T07:53:29;7.93;;;5.03;;
9310;SDS011;4694;52.464;13.480;2022-09-28T07:56:00;5.88;;;3.70;;
9310;SDS011;4694;52.464;13.480;2022-09-28T07:58:30;4.38;;;3.97;;
9310;SDS011;4694;52.464;13.480;2022-09-28T08:00:57;6.22;;;4.13;;
9310;SDS011;4694;52.464;13.480;2022-09-28T08:03:25;6.50;;;4.13;;
9310;SDS011;4694;52.464;13.480;2022-09-28T08:05:56;5.90;;;4.55;;
9310;SDS011;4694;52.464;13.480;2022-09-28T08:08:23;5.40;;;4.15;;
9310;SDS011;4694;52.464;13.480;2022-09-28T08:10:50;5.07;;;3.78;;
9310;SDS011;4694;52.464;13.480;2022-09-28T08:13:19;5.43;;;4.47;;
9310;SDS011;4694;52.464;13.480;2022-09-28T08:15:47;7.88;;;5.43;;
9310;SDS011;4694;52.464;13.480;2022-09-28T08:18:15;8.23;;;4.88;;
9310;SDS011;4694;52.464;13.480;2022-09-28T08:20:43;7.30;;;5.07;;
9310;SDS011;4694;52.464;13.480;2022-09-28T08:23:27;6.22;;;4.95;;
9310;SDS011;4694;52.464;13.480;2022-09-28T08:25:54;7.05;;;4.80;;
9310;SDS011;4694;52.464;13.480;2022-09-28T08:28:22;5.60;;;4.32;;
9310;SDS011;4694;52.464;13.480;2022-09-28T08:30:49;7.22;;;4.95;;
9310;SDS011;4694;52.464;13.480;2022-09-28T08:33:18;8.27;;;5.18;;
9310;SDS011;4694;52.464;13.480;2022-09-28T08:35:45;7.35;;;4.80;;
9310;SDS011;4694;52.464;13.480;2022-09-28T08:38:12;7.50;;;4.07;;
9310;SDS011;4694;52.464;13.480;2022-09-28T08:40:41;9.35;;;5.20;;
9310;SDS011;4694;52.464;13.480;2022-09-28T08:45:38;5.65;;;4.05;;
9310;SDS011;4694;52.464;13.480;2022-09-28T08:48:07;8.45;;;5.75;;
9310;SDS011;4694;52.464;13.480;2022-09-28T08:50:57;7.95;;;4.68;;
9310;SDS011;4694;52.464;13.480;2022-09-28T08:53:31;6.25;;;4.88;;
9310;SDS011;4694;52.464;13.480;2022-09-28T08:55:59;6.53;;;4.68;;
9310;SDS011;4694;52.464;13.480;2022-09-28T08:58:28;7.43;;;4.70;;
9310;SDS011;4694;52.464;13.480;2022-09-28T09:00:59;7.80;;;3.85;;
9310;SDS011;4694;52.464;13.480;2022-09-28T09:03:27;5.53;;;3.58;;
9310;SDS011;4694;52.464;13.480;2022-09-28T09:05:57;5.75;;;3.30;;
9310;SDS011;4694;52.464;13.480;2022-09-28T09:08:32;5.10;;;3.25;;
9310;SDS011;4694;52.464;13.480;2022-09-28T09:11:05;5.78;;;4.35;;
9310;SDS011;4694;52.464;13.480;2022-09-28T09:13:53;8.35;;;3.80;;
9310;SDS011;4694;52.464;13.480;2022-09-28T09:16:33;3.85;;;2.75;;
9310;SDS011;4694;52.464;13.480;2022-09-28T09:19:03;2.85;;;2.47;;
9310;SDS011;4694;52.464;13.480;2022-09-28T09:21:37;3.10;;;2.00;;
9310;SDS011;4694;52.464;13.480;2022-09-28T09:24:09;4.13;;;1.40;;
9310;SDS011;4694;52.464;13.480;2022-09-28T09:26:38;2.53;;;1.30;;
9310;SDS011;4694;52.464;13.480;2022-09-28T09:29:11;2.15;;;1.05;;
9310;SDS011;4694;52.464;13.480;2022-09-28T09:31:46;1.65;;;0.77;;
9310;SDS011;4694;52.464;13.480;2022-09-28T09:34:22;2.92;;;1.20;;
9310;SDS011;4694;52.464;13.480;2022-09-28T09:36:59;2.00;;;1.17;;
9310;SDS011;4694;52.464;13.480;2022-09-28T09:39:33;1.45;;;0.90;;
9310;SDS011;4694;52.464;13.480;2022-09-28T09:42:09;2.28;;;0.93;;
9310;SDS011;4694;52.464;13.480;2022-09-28T09:44:45;1.95;;;0.70;;
9310;SDS011;4694;52.464;13.480;2022-09-28T09:47:18;3.03;;;0.80;;
9310;SDS011;4694;52.464;13.480;2022-09-28T09:49:47;1.87;;;0.90;;
9310;SDS011;4694;52.464;13.480;2022-09-28T09:52:17;1.20;;;0.57;;
9310;SDS011;4694;52.464;13.480;2022-09-28T09:54:48;3.03;;;0.77;;
9310;SDS011;4694;52.464;13.480;2022-09-28T09:57:17;3.97;;;0.73;;
9310;SDS011;4694;52.464;13.480;2022-09-28T09:59:46;1.03;;;0.90;;
9310;SDS011;4694;52.464;13.480;2022-09-28T10:02:19;1.45;;;0.60;;
9310;SDS011;4694;52.464;13.480;2022-09-28T10:04:49;2.33;;;0.82;;
9310;SDS011;4694;52.464;13.480;2022-09-28T10:07:19;3.15;;;1.13;;
9310;SDS011;4694;52.464;13.480;2022-09-28T10:09:47;1.15;;;0.68;;
9310;SDS011;4694;52.464;13.480;2022-09-28T10:12:17;2.38;;;0.98;;
9310;SDS011;4694;52.464;13.480;2022-09-28T10:14:45;2.83;;;1.07;;
9310;SDS011;4694;52.464;13.480;2022-09-28T10:17:12;1.67;;;0.77;;
9310;SDS011;4694;52.464;13.480;2022-09-28T10:19:41;2.63;;;0.93;;
9310;SDS011;4694;52.464;13.480;2022-09-28T10:22:11;1.55;;;1.20;;
9310;SDS011;4694;52.464;13.480;2022-09-28T10:24:40;2.45;;;0.98;;
9310;SDS011;4694;52.464;13.480;2022-09-28T10:27:10;1.60;;;0.60;;
9310;SDS011;4694;52.464;13.480;2022-09-28T10:29:42;2.78;;;0.55;;
9310;SDS011;4694;52.464;13.480;2022-09-28T10:32:16;0.65;;;0.65;;
9310;SDS011;4694;52.464;13.480;2022-09-28T10:34:44;0.95;;;0.50;;
9310;SDS011;4694;52.464;13.480;2022-09-28T10:37:12;2.53;;;0.57;;
9310;SDS011;4694;52.464;13.480;2022-09-28T10:39:42;2.22;;;0.60;;
9310;SDS011;4694;52.464;13.480;2022-09-28T10:42:11;2.22;;;0.68;;
9310;SDS011;4694;52.464;13.480;2022-09-28T10:44:47;1.85;;;0.50;;
9310;SDS011;4694;52.464;13.480;2022-09-28T10:47:16;2.45;;;0.80;;
9310;SDS011;4694;52.464;13.480;2022-09-28T10:49:45;2.17;;;1.02;;
9310;SDS011;4694;52.464;13.480;2022-09-28T10:52:29;4.60;;;1.15;;
9310;SDS011;4694;52.464;13.480;2022-09-28T10:54:57;2.80;;;1.17;;
9310;SDS011;4694;52.464;13.480;2022-09-28T10:57:26;2.45;;;1.45;;
9310;SDS011;4694;52.464;13.480;2022-09-28T10:59:53;3.33;;;1.63;;
9310;SDS011;4694;52.464;13.480;2022-09-28T11:02:20;2.88;;;1.05;;
9310;SDS011;4694;52.464;13.480;2022-09-28T11:04:51;1.70;;;1.10;;
9310;SDS011;4694;52.464;13.480;2022-09-28T11:07:19;2.88;;;0.65;;
9310;SDS011;4694;52.464;13.480;2022-09-28T11:09:49;1.10;;;0.75;;
9310;SDS011;4694;52.464;13.480;2022-09-28T11:12:17;2.83;;;1.23;;
9310;SDS011;4694;52.464;13.480;2022-09-28T11:14:45;1.20;;;0.90;;
9310;SDS011;4694;52.464;13.480;2022-09-28T11:17:17;3.25;;;1.63;;
9310;SDS011;4694;52.464;13.480;2022-09-28T11:19:50;2.25;;;1.10;;
9310;SDS011;4694;52.464;13.480;2022-09-28T11:22:21;2.83;;;1.10;;
9310;SDS011;4694;52.464;13.480;2022-09-28T11:24:51;4.07;;;1.58;;
9310;SDS011;4694;52.464;13.480;2022-09-28T11:27:37;4.28;;;1.08;;
9310;SDS011;4694;52.464;13.480;2022-09-28T11:30:05;1.67;;;1.23;;
9310;SDS011;4694;52.464;13.480;2022-09-28T11:32:46;3.85;;;1.23;;
9310;SDS011;4694;52.464;13.480;2022-09-28T11:35:15;1.10;;;1.00;;
9310;SDS011;4694;52.464;13.480;2022-09-28T11:38:08;1.75;;;1.17;;
9310;SDS011;4694;52.464;13.480;2022-09-28T11:40:42;1.90;;;0.95;;
9310;SDS011;4694;52.464;13.480;2022-09-28T11:43:12;4.20;;;1.75;;
9310;SDS011;4694;52.464;13.480;2022-09-28T11:45:45;1.93;;;0.90;;
9310;SDS011;4694;52.464;13.480;2022-09-28T11:48:14;2.50;;;2.17;;
9310;SDS011;4694;52.464;13.480;2022-09-28T11:50:44;2.38;;;1.65;;
9310;SDS011;4694;52.464;13.480;2022-09-28T11:53:15;1.25;;;1.20;;
9310;SDS011;4694;52.464;13.480;2022-09-28T11:55:45;0.98;;;0.88;;
9310;SDS011;4694;52.464;13.480;2022-09-28T11:58:16;2.20;;;1.13;;
9310;SDS011;4694;52.464;13.480;2022-09-28T12:00:46;0.90;;;0.90;;
9310;SDS011;4694;52.464;13.480;2022-09-28T12:03:17;1.55;;;0.93;;
9310;SDS011;4694;52.464;13.480;2022-09-28T12:08:14;1.10;;;1.00;;
9310;SDS011;4694;52.464;13.480;2022-09-28T12:10:44;1.42;;;0.82;;
9310;SDS011;4694;52.464;13.480;2022-09-28T12:13:15;0.95;;;0.75;;
9310;SDS011;4694;52.464;13.480;2022-09-28T12:15:45;3.58;;;0.93;;
9310;SDS011;4694;52.464;13.480;2022-09-28T12:18:14;1.50;;;0.57;;
9310;SDS011;4694;52.464;13.480;2022-09-28T12:20:44;1.85;;;0.50;;
9310;SDS011;4694;52.464;13.480;2022-09-28T12:23:12;8.73;;;1.10;;
9310;SDS011;4694;52.464;13.480;2022-09-28T12:25:41;73.40;;;10.00;;
9310;SDS011;4694;52.464;13.480;2022-09-28T12:28:12;35.88;;;4.63;;
9310;SDS011;4694;52.464;13.480;2022-09-28T12:30:41;11.20;;;1.77;;
9310;SDS011;4694;52.464;13.480;2022-09-28T12:33:10;1.60;;;1.23;;
9310;SDS011;4694;52.464;13.480;2022-09-28T12:35:43;11.35;;;1.63;;
9310;SDS011;4694;52.464;13.480;2022-09-28T12:38:20;17.58;;;2.38;;
9310;SDS011;4694;52.464;13.480;2022-09-28T12:40:54;2.33;;;1.25;;
9310;SDS011;4694;52.464;13.480;2022-09-28T12:43:28;4.90;;;1.35;;
9310;SDS011;4694;52.464;13.480;2022-09-28T12:46:06;0.57;;;0.45;;
9310;SDS011;4694;52.464;13.480;2022-09-28T12:48:40;0.52;;;0.40;;
9310;SDS011;4694;52.464;13.480;2022-09-28T12:51:16;0.85;;;0.60;;
9310;SDS011;4694;52.464;13.480;2022-09-28T12:53:52;2.25;;;0.70;;
9310;SDS011;4694;52.464;13.480;2022-09-28T12:56:23;1.05;;;1.05;;
9310;SDS011;4694;52.464;13.480;2022-09-28T12:58:56;0.50;;;0.50;;
9310;SDS011;4694;52.464;13.480;2022-09-28T13:01:34;2.42;;;0.40;;
9310;SDS011;4694;52.464;13.480;2022-09-28T13:06:47;1.38;;;1.20;;
9310;SDS011;4694;52.464;13.480;2022-09-28T13:09:19;1.40;;;0.90;;
9310;SDS011;4694;52.464;13.480;2022-09-28T13:11:55;2.88;;;0.90;;
9310;SDS011;4694;52.464;13.480;2022-09-28T13:14:30;2.17;;;0.70;;
9310;SDS011;4694;52.464;13.480;2022-09-28T13:17:02;2.50;;;0.63;;
9310;SDS011;4694;52.464;13.480;2022-09-28T13:19:35;0.95;;;0.70;;
9310;SDS011;4694;52.464;13.480;2022-09-28T13:24:34;1.52;;;0.75;;
9310;SDS011;4694;52.464;13.480;2022-09-28T13:27:03;0.90;;;0.70;;
9310;SDS011;4694;52.464;13.480;2022-09-28T13:29:31;0.82;;;0.63;;
9310;SDS011;4694;52.464;13.480;2022-09-28T13:32:01;1.58;;;0.70;;
9310;SDS011;4694;52.464;13.480;2022-09-28T13:34:29;3.63;;;0.70;;
9310;SDS011;4694;52.464;13.480;2022-09-28T13:37:09;2.45;;;0.50;;
9310;SDS011;4694;52.464;13.480;2022-09-28T13:39:46;2.03;;;0.40;;
9310;SDS011;4694;52.464;13.480;2022-09-28T13:42:23;0.40;;;0.40;;
9310;SDS011;4694;52.464;13.480;2022-09-28T13:44:54;1.25;;;0.40;;
9310;SDS011;4694;52.464;13.480;2022-09-28T13:47:30;1.13;;;0.60;;
9310;SDS011;4694;52.464;13.480;2022-09-28T13:50:10;0.98;;;0.68;;
9310;SDS011;4694;52.464;13.480;2022-09-28T13:52:43;1.52;;;0.30;;
9310;SDS011;4694;52.464;13.480;2022-09-28T13:55:18;0.65;;;0.47;;
9310;SDS011;4694;52.464;13.480;2022-09-28T13:57:51;1.17;;;0.50;;
9310;SDS011;4694;52.464;13.480;2022-09-28T14:00:21;2.10;;;0.60;;
9310;SDS011;4694;52.464;13.480;2022-09-28T14:02:52;2.20;;;0.40;;
9310;SDS011;4694;52.464;13.480;2022-09-28T14:08:18;0.60;;;0.40;;
9310;SDS011;4694;52.464;13.480;2022-09-28T14:10:49;0.70;;;0.40;;
9310;SDS011;4694;52.464;13.480;2022-09-28T14:16:18;1.10;;;0.73;;
9310;SDS011;4694;52.464;13.480;2022-09-28T14:18:48;1.42;;;0.30;;
9310;SDS011;4694;52.464;13.480;2022-09-28T14:24:00;1.77;;;0.40;;
9310;SDS011;4694;52.464;13.480;2022-09-28T14:26:47;0.65;;;0.40;;
9310;SDS011;4694;52.464;13.480;2022-09-28T14:29:21;0.50;;;0.30;;
9310;SDS011;4694;52.464;13.480;2022-09-28T14:31:52;0.70;;;0.38;;
9310;SDS011;4694;52.464;13.480;2022-09-28T14:34:25;1.13;;;0.60;;
9310;SDS011;4694;52.464;13.480;2022-09-28T14:36:55;0.47;;;0.40;;
9310;SDS011;4694;52.464;13.480;2022-09-28T14:39:42;0.57;;;0.50;;
9310;SDS011;4694;52.464;13.480;2022-09-28T14:42:27;1.42;;;0.73;;
9310;SDS011;4694;52.464;13.480;2022-09-28T14:47:40;1.92;;;0.88;;
9310;SDS011;4694;52.464;13.480;2022-09-28T14:52:54;0.50;;;0.47;;
9310;SDS011;4694;52.464;13.480;2022-09-28T14:55:23;1.20;;;0.70;;
9310;SDS011;4694;52.464;13.480;2022-09-28T15:00:19;1.20;;;0.50;;
9310;SDS011;4694;52.464;13.480;2022-09-28T15:02:47;0.57;;;0.40;;
9310;SDS011;4694;52.464;13.480;2022-09-28T15:05:17;0.75;;;0.40;;
9310;SDS011;4694;52.464;13.480;2022-09-28T15:07:46;0.90;;;0.50;;
9310;SDS011;4694;52.464;13.480;2022-09-28T15:10:18;2.13;;;0.60;;
9310;SDS011;4694;52.464;13.480;2022-09-28T15:12:47;1.92;;;0.68;;
9310;SDS011;4694;52.464;13.480;2022-09-28T15:15:19;1.85;;;1.40;;
9310;SDS011;4694;52.464;13.480;2022-09-28T15:17:50;1.02;;;0.50;;
9310;SDS011;4694;52.464;13.480;2022-09-28T15:20:20;0.77;;;0.60;;
9310;SDS011;4694;52.464;13.480;2022-09-28T15:22:49;4.60;;;0.63;;
9310;SDS011;4694;52.464;13.480;2022-09-28T15:25:18;1.70;;;0.90;;
9310;SDS011;4694;52.464;13.480;2022-09-28T15:27:49;0.65;;;0.50;;
9310;SDS011;4694;52.464;13.480;2022-09-28T15:30:20;0.50;;;0.50;;
9310;SDS011;4694;52.464;13.480;2022-09-28T15:32:48;0.50;;;0.50;;
9310;SDS011;4694;52.464;13.480;2022-09-28T15:35:18;1.85;;;0.73;;
9310;SDS011;4694;52.464;13.480;2022-09-28T15:37:44;0.65;;;0.52;;
9310;SDS011;4694;52.464;13.480;2022-09-28T15:40:14;1.52;;;0.50;;
9310;SDS011;4694;52.464;13.480;2022-09-28T15:42:43;1.55;;;0.88;;
9310;SDS011;4694;52.464;13.480;2022-09-28T15:45:18;1.67;;;0.70;;
9310;SDS011;4694;52.464;13.480;2022-09-28T15:47:48;0.77;;;0.47;;
9310;SDS011;4694;52.464;13.480;2022-09-28T15:50:19;2.20;;;0.70;;